Time;durP1;ratioP1;P1;durP2;ratioP2;P2;SDS_P1;SDS_P2;PMS_P1;PMS_P2;Temp;Humidity;BMP_temperature;BMP_pressure;BME280_temperature;BME280_humidity;BME280_pressure;Samples;Min_cycle;Max_cycle;Signal;HPM_P1;HPM_P2
2022/12/29 00:01:14;;;;;;;;;1.00;1.00;;;;;11.18;90.87;99755.66;5044637;28;54329;-70
2022/12/29 00:03:40;;;;;;;;;0.25;0.25;;;;;11.20;90.68;99753.78;5054416;28;58256;-69
2022/12/29 00:06:05;;;;;;;;;2.00;2.00;;;;;11.19;90.44;99743.38;5038757;28;45394;-71
2022/12/29 00:08:39;;;;;;;;;1.00;1.00;;;;;11.22;90.50;99741.38;5056481;28;45331;-69
2022/12/29 00:11:13;;;;;;;;;1.00;1.00;;;;;11.24;90.65;99744.78;5055397;28;46048;-70
2022/12/29 00:16:24;;;;;;;;;1.00;1.00;;;;;11.29;90.07;99743.66;5055915;28;45455;-71
2022/12/29 00:18:49;;;;;;;;;2.00;2.00;;;;;11.25;89.67;99720.16;5056527;28;45471;-72
2022/12/29 00:35:10;;;;;;;;;2.00;2.00;;;;;11.45;89.30;99714.69;5055909;28;45430;-70
2022/12/29 00:45:55;;;;;;;;;2.00;2.00;;;;;11.48;90.13;99714.50;5055510;28;45329;-71
2022/12/29 00:49:30;;;;;;;;;2.00;2.00;;;;;11.44;90.25;99705.94;5037098;28;45508;-69
2022/12/29 00:51:06;;;;;;;;;2.00;2.00;;;;;11.39;91.06;99705.34;5055819;28;45482;-70
2022/12/29 00:53:32;;;;;;;;;3.25;3.25;;;;;11.39;91.52;99716.75;5055241;28;45389;-70
2022/12/29 00:55:57;;;;;;;;;3.00;3.00;;;;;11.37;91.67;99710.72;5037358;28;45343;-69
2022/12/29 00:58:23;;;;;;;;;2.25;2.25;;;;;11.36;91.78;99716.06;5058822;28;45351;-69
2022/12/29 01:00:48;;;;;;;;;3.00;3.00;;;;;11.33;92.38;99706.56;5057758;28;45338;-69
2022/12/29 01:03:13;;;;;;;;;1.25;1.25;;;;;11.33;92.13;99708.34;5057327;28;45468;-67
2022/12/29 01:05:39;;;;;;;;;1.00;1.00;;;;;11.30;92.70;99705.88;5056520;28;62982;-69
2022/12/29 01:08:04;;;;;;;;;3.00;3.00;;;;;11.27;92.76;99727.97;5058196;28;45363;-69
2022/12/29 01:10:29;;;;;;;;;2.00;2.00;;;;;11.23;92.85;99723.81;5056221;28;45475;-69
2022/12/29 01:12:55;;;;;;;;;2.00;2.00;;;;;11.14;94.27;99722.53;5054681;28;45437;-66
2022/12/29 01:15:21;;;;;;;;;2.25;2.00;;;;;11.15;94.64;99724.25;5054603;28;45344;-67
2022/12/29 01:17:46;;;;;;;;;1.25;1.25;;;;;11.12;94.62;99721.78;5055234;28;45462;-67
2022/12/29 01:20:11;;;;;;;;;1.75;1.75;;;;;11.08;95.45;99733.41;5055152;28;45351;-66
2022/12/29 01:22:37;;;;;;;;;2.00;2.00;;;;;11.08;95.44;99728.16;5054753;28;45959;-67
2022/12/29 01:25:03;;;;;;;;;1.25;1.25;;;;;11.02;94.95;99723.25;5055014;28;45339;-65
2022/12/29 01:27:29;;;;;;;;;1.00;1.00;;;;;11.07;95.17;99729.09;5054776;28;45391;-66
2022/12/29 01:29:54;;;;;;;;;2.25;2.25;;;;;11.06;94.91;99733.50;5055346;28;45353;-66
2022/12/29 01:32:19;;;;;;;;;2.00;2.00;;;;;11.04;95.24;99731.91;5054638;28;57202;-68
2022/12/29 01:34:45;;;;;;;;;0.75;0.75;;;;;11.06;95.62;99722.13;5055173;28;45281;-67
2022/12/29 01:37:10;;;;;;;;;1.00;1.00;;;;;11.05;95.68;99726.53;5055722;28;45293;-69
2022/12/29 01:39:36;;;;;;;;;0.00;0.00;;;;;11.06;95.86;99722.97;5055713;28;45168;-69
2022/12/29 01:42:01;;;;;;;;;2.00;2.00;;;;;11.06;95.91;99722.13;5037585;28;46278;-71
2022/12/29 01:44:50;;;;;;;;;1.25;1.25;;;;;11.08;95.58;99726.34;5055022;28;45311;-68
2022/12/29 01:47:31;;;;;;;;;1.50;1.50;;;;;11.07;95.98;99714.13;5054836;28;45471;-70
2022/12/29 01:50:01;;;;;;;;;1.25;1.25;;;;;11.06;95.10;99733.50;5055084;28;45343;-69
2022/12/29 01:52:32;;;;;;;;;1.00;1.00;;;;;11.07;94.87;99740.44;5054332;28;45530;-71
2022/12/29 01:54:58;;;;;;;;;2.00;2.00;;;;;11.07;95.19;99744.88;5054732;28;45498;-70
2022/12/29 01:57:29;;;;;;;;;1.50;1.50;;;;;11.07;94.82;99747.50;5054920;28;45646;-70
2022/12/29 02:00:08;;;;;;;;;0.00;0.00;;;;;11.03;94.15;99746.81;5055060;28;45408;-70
2022/12/29 02:02:34;;;;;;;;;0.00;0.00;;;;;11.03;92.94;99749.44;5054874;28;46560;-69
2022/12/29 02:05:07;;;;;;;;;0.00;0.00;;;;;11.02;92.62;99741.66;5054873;28;45454;-68
2022/12/29 02:07:33;;;;;;;;;0.00;0.00;;;;;10.92;92.28;99734.28;5037100;28;45446;-67
2022/12/29 02:10:01;;;;;;;;;0.00;0.00;;;;;10.90;92.73;99744.03;5054962;28;45598;-71
2022/12/29 02:12:26;;;;;;;;;0.00;0.00;;;;;10.91;93.01;99751.00;5056870;28;46746;-70
2022/12/29 02:14:57;;;;;;;;;0.00;0.00;;;;;10.87;92.84;99754.72;5039820;28;45222;-68
2022/12/29 02:17:41;;;;;;;;;0.00;0.00;;;;;10.84;92.80;99760.16;5058277;28;45425;-70
2022/12/29 02:20:45;;;;;;;;;0.00;0.00;;;;;10.78;93.26;99771.84;5058973;28;45403;-71
2022/12/29 02:23:25;;;;;;;;;0.00;0.00;;;;;10.68;93.50;99757.50;5058761;28;46217;-72
2022/12/29 02:26:35;;;;;;;;;0.00;0.00;;;;;10.56;93.67;99751.09;5059261;28;45486;-70
2022/12/29 02:29:31;;;;;;;;;0.00;0.00;;;;;10.51;93.61;99753.13;5018045;28;45270;-69
2022/12/29 02:32:07;;;;;;;;;0.00;0.00;;;;;10.43;94.04;99750.06;5017153;28;45288;-68
2022/12/29 02:34:43;;;;;;;;;0.00;0.00;;;;;10.38;94.42;99740.59;5048656;28;46307;-70
2022/12/29 02:37:27;;;;;;;;;0.00;0.00;;;;;10.35;94.63;99738.13;5058056;28;45471;-67
2022/12/29 02:40:13;;;;;;;;;0.00;0.00;;;;;10.34;94.00;99735.59;5059751;28;45402;-68
2022/12/29 02:42:57;;;;;;;;;0.00;0.00;;;;;10.31;94.67;99718.22;5061685;28;45300;-68
2022/12/29 02:45:36;;;;;;;;;0.00;0.00;;;;;10.28;94.29;99726.25;5040845;28;48218;-69
2022/12/29 02:48:16;;;;;;;;;0.00;0.00;;;;;10.28;93.87;99726.25;5057996;28;45371;-68
2022/12/29 02:50:53;;;;;;;;;0.00;0.00;;;;;10.28;93.81;99722.78;5058164;28;45341;-70
2022/12/29 02:54:40;;;;;;;;;0.00;0.00;;;;;10.28;93.66;99730.69;5039253;28;45447;-69
2022/12/29 02:56:06;;;;;;;;;0.00;0.00;;;;;10.30;93.61;99718.31;5056846;28;45622;-71
2022/12/29 02:58:31;;;;;;;;;0.75;0.75;;;;;10.28;93.19;99721.00;5057157;28;45328;-70
2022/12/29 03:01:31;;;;;;;;;0.00;0.00;;;;;10.33;92.67;99726.03;5039220;28;45336;-71
2022/12/29 03:04:26;;;;;;;;;0.00;0.00;;;;;10.34;92.31;99725.94;5057796;28;45486;-70
2022/12/29 03:07:09;;;;;;;;;1.00;1.00;;;;;10.14;92.24;99695.47;5057347;28;46389;-71
2022/12/29 03:09:49;;;;;;;;;0.00;0.00;;;;;10.37;91.88;99707.38;5057846;28;45229;-70
2022/12/29 03:18:14;;;;;;;;;0.00;0.00;;;;;10.47;90.60;99717.41;5056695;28;45893;-67
2022/12/29 03:20:51;;;;;;;;;0.00;0.00;;;;;10.45;91.40;99721.91;5052991;28;45436;-71
2022/12/29 03:23:21;;;;;;;;;0.00;0.00;;;;;10.37;91.24;99720.50;5033494;28;45416;-68
2022/12/29 03:25:50;;;;;;;;;0.00;0.00;;;;;10.41;91.16;99728.25;5035846;28;45568;-69
2022/12/29 03:28:24;;;;;;;;;1.00;1.00;;;;;10.36;90.44;99737.22;5036528;28;46153;-72
2022/12/29 03:30:49;;;;;;;;;0.00;0.00;;;;;10.32;90.27;99740.94;5018600;28;45376;-71
2022/12/29 03:33:20;;;;;;;;;0.00;0.00;;;;;10.29;90.22;99741.09;5036562;28;45476;-72
2022/12/29 03:35:48;;;;;;;;;1.00;1.00;;;;;10.27;90.75;99736.88;5037093;28;45236;-71
2022/12/29 03:38:30;;;;;;;;;1.75;1.00;;;;;10.22;90.37;99732.69;5036660;28;46406;-71
2022/12/29 03:41:01;;;;;;;;;0.00;0.00;;;;;10.16;90.47;99730.41;5036323;28;45249;-71
2022/12/29 03:43:28;;;;;;;;;0.00;0.00;;;;;10.21;90.23;99740.66;5036514;28;45290;-69
2022/12/29 03:45:53;;;;;;;;;0.25;0.25;;;;;10.22;89.54;99755.50;5036853;28;45379;-70
2022/12/29 03:48:19;;;;;;;;;2.00;0.00;;;;;10.25;90.00;99746.63;5034864;28;62064;-68
2022/12/29 03:50:44;;;;;;;;;0.50;0.50;;;;;10.21;89.92;99746.78;5018646;28;46838;-69
2022/12/29 03:53:09;;;;;;;;;0.00;0.00;;;;;10.25;89.51;99742.19;5036574;28;45487;-69
2022/12/29 03:55:35;;;;;;;;;0.00;0.00;;;;;10.29;89.50;99756.88;5036801;28;45530;-68
2022/12/29 03:58:00;;;;;;;;;0.00;0.00;;;;;10.32;88.83;99748.81;5036172;28;59678;-67
2022/12/29 04:00:25;;;;;;;;;0.00;0.00;;;;;10.34;88.69;99749.59;5037678;28;45253;-67
2022/12/29 04:02:51;;;;;;;;;0.75;0.75;;;;;10.32;89.00;99729.59;5035666;28;51888;-66
2022/12/29 04:05:17;;;;;;;;;0.00;0.00;;;;;10.40;89.28;99756.34;5036591;28;45491;-73
2022/12/29 04:07:42;;;;;;;;;0.00;0.00;;;;;10.40;89.00;99737.09;5035869;28;46209;-66
2022/12/29 04:10:08;;;;;;;;;0.00;0.00;;;;;10.40;88.45;99761.59;5035967;28;45473;-68
2022/12/29 04:12:33;;;;;;;;;0.00;0.00;;;;;10.33;88.54;99744.44;5036510;28;45357;-70
2022/12/29 04:14:58;;;;;;;;;0.00;0.00;;;;;10.37;88.54;99767.00;5018293;28;45364;-70
2022/12/29 04:17:24;;;;;;;;;0.00;0.00;;;;;10.40;87.67;99763.38;5035802;28;58788;-69
2022/12/29 04:19:49;;;;;;;;;0.00;0.00;;;;;10.41;88.23;99757.19;5038117;28;45435;-74
2022/12/29 04:22:14;;;;;;;;;0.00;0.00;;;;;10.42;87.90;99759.75;5038179;28;45359;-71
2022/12/29 04:24:40;;;;;;;;;0.00;0.00;;;;;10.43;88.25;99760.59;5019934;28;45540;-71
2022/12/29 04:27:05;;;;;;;;;0.00;0.00;;;;;10.45;88.21;99777.13;5037047;28;45342;-71
2022/12/29 04:29:30;;;;;;;;;0.00;0.00;;;;;10.45;87.69;99766.59;5035982;28;45369;-69
2022/12/29 04:31:56;;;;;;;;;0.25;0.00;;;;;10.47;87.14;99778.75;5036128;28;45387;-69
2022/12/29 04:34:21;;;;;;;;;2.00;1.00;;;;;10.50;87.43;99780.34;5018221;28;45615;-68
2022/12/29 04:36:47;;;;;;;;;0.00;0.00;;;;;10.49;87.09;99781.28;5035090;28;65590;-69
2022/12/29 04:39:12;;;;;;;;;0.00;0.00;;;;;10.50;87.37;99783.84;5035398;28;45392;-69
2022/12/29 04:41:37;;;;;;;;;0.00;0.00;;;;;10.50;87.35;99780.34;5035639;28;45350;-71
2022/12/29 04:44:03;;;;;;;;;0.00;0.00;;;;;10.50;87.27;99781.22;5037126;28;45473;-70
2022/12/29 04:46:29;;;;;;;;;0.00;0.00;;;;;10.44;87.42;99775.44;5037722;28;45407;-69
2022/12/29 04:48:55;;;;;;;;;0.00;0.00;;;;;10.47;86.85;99802.41;5035953;28;45302;-70
2022/12/29 04:51:20;;;;;;;;;0.00;0.00;;;;;10.46;87.02;99800.72;5035820;28;45404;-70
2022/12/29 04:53:45;;;;;;;;;0.00;0.00;;;;;10.48;86.57;99801.50;5035565;28;45631;-71
2022/12/29 04:56:11;;;;;;;;;0.00;0.00;;;;;10.51;87.15;99796.06;5035294;28;51262;-70
2022/12/29 04:58:36;;;;;;;;;0.00;0.00;;;;;10.53;86.83;99790.72;5035313;28;47590;-71
2022/12/29 05:01:02;;;;;;;;;0.00;0.00;;;;;10.51;86.89;99792.56;5035422;28;45467;-69
2022/12/29 05:03:28;;;;;;;;;0.00;0.00;;;;;10.58;86.40;99806.25;5035663;28;45387;-71
2022/12/29 05:05:57;;;;;;;;;0.00;0.00;;;;;10.60;86.29;99809.66;5035373;28;46539;-67
2022/12/29 05:08:23;;;;;;;;;0.00;0.00;;;;;10.61;86.11;99812.22;5035207;28;45356;-69
2022/12/29 05:10:50;;;;;;;;;0.00;0.00;;;;;10.57;85.89;99818.53;5035980;28;45507;-72
2022/12/29 05:13:16;;;;;;;;;0.00;0.00;;;;;10.61;85.27;99816.63;5035681;28;45372;-70
2022/12/29 05:15:52;;;;;;;;;3.00;3.00;;;;;10.62;84.98;99816.56;5034940;28;45602;-70
2022/12/29 05:18:18;;;;;;;;;0.00;0.00;;;;;10.66;85.06;99822.50;5035096;28;45373;-72
2022/12/29 05:20:44;;;;;;;;;0.00;0.00;;;;;10.66;85.33;99819.84;5035026;28;45452;-71
2022/12/29 05:23:10;;;;;;;;;0.00;0.00;;;;;10.70;85.10;99826.66;5035012;28;45242;-71
2022/12/29 05:25:35;;;;;;;;;0.75;0.50;;;;;10.71;84.74;99823.09;5034367;28;46582;-67
2022/12/29 05:28:00;;;;;;;;;1.00;1.00;;;;;10.71;84.45;99817.00;5034804;28;45397;-67
2022/12/29 05:30:25;;;;;;;;;0.00;0.00;;;;;10.68;84.70;99819.78;5034395;28;51511;-66
2022/12/29 05:32:51;;;;;;;;;0.00;0.00;;;;;10.62;84.53;99813.94;5037218;28;45333;-67
2022/12/29 05:35:16;;;;;;;;;0.00;0.00;;;;;10.62;83.48;99832.34;5036085;28;45410;-71
2022/12/29 05:37:42;;;;;;;;;0.00;0.00;;;;;10.59;83.16;99831.63;5035094;28;45331;-70
2022/12/29 05:40:07;;;;;;;;;0.00;0.00;;;;;10.56;82.81;99835.25;5032897;28;58390;-70
2022/12/29 05:42:33;;;;;;;;;0.00;0.00;;;;;10.54;82.83;99828.38;5034997;28;45210;-70
2022/12/29 05:44:58;;;;;;;;;0.00;0.00;;;;;10.53;81.85;99830.16;5034370;28;50424;-70
2022/12/29 05:47:23;;;;;;;;;0.25;0.25;;;;;10.53;82.15;99843.31;5036890;28;56990;-68
2022/12/29 05:49:49;;;;;;;;;0.00;0.00;;;;;10.49;81.68;99836.50;5038367;28;45278;-68
2022/12/29 05:52:14;;;;;;;;;0.00;0.00;;;;;10.43;81.48;99823.69;5020335;28;45606;-70
2022/12/29 05:54:39;;;;;;;;;0.00;0.00;;;;;10.52;81.83;99838.97;5019643;28;57929;-69
2022/12/29 05:57:05;;;;;;;;;1.50;1.00;;;;;10.52;81.40;99852.13;5037694;28;52954;-70
2022/12/29 05:59:30;;;;;;;;;2.00;0.00;;;;;10.50;81.76;99854.84;5038341;28;45168;-72
2022/12/29 06:01:55;;;;;;;;;0.75;0.75;;;;;10.51;81.48;99853.06;5038790;28;45525;-71
2022/12/29 06:04:20;;;;;;;;;0.00;0.00;;;;;10.51;80.50;99864.44;5037780;28;56542;-70
2022/12/29 06:06:46;;;;;;;;;0.00;0.00;;;;;10.52;80.84;99860.00;5037725;28;58659;-70
2022/12/29 06:09:11;;;;;;;;;0.25;0.00;;;;;10.55;80.49;99878.25;5040391;28;45317;-70
2022/12/29 06:11:37;;;;;;;;;0.50;0.50;;;;;10.56;80.79;99873.88;5041801;28;45527;-69
2022/12/29 06:14:02;;;;;;;;;1.75;1.75;;;;;10.53;79.89;99874.84;5041261;28;47435;-69
2022/12/29 06:16:28;;;;;;;;;2.00;2.00;;;;;10.53;80.15;99874.84;5021689;28;45369;-71
2022/12/29 06:18:53;;;;;;;;;0.00;0.00;;;;;10.51;79.39;99872.31;5039455;28;45506;-69
2022/12/29 06:21:18;;;;;;;;;1.00;1.00;;;;;10.47;79.76;99862.03;5038363;28;45305;-69
2022/12/29 06:23:44;;;;;;;;;1.00;1.00;;;;;10.44;79.49;99867.44;5037762;28;45333;-67
2022/12/29 06:26:09;;;;;;;;;0.00;0.00;;;;;10.45;79.44;99884.91;5037847;28;45420;-69
2022/12/29 06:28:34;;;;;;;;;1.00;1.00;;;;;10.43;79.59;99881.53;5019840;28;49030;-72
2022/12/29 06:31:01;;;;;;;;;0.00;0.00;;;;;10.41;79.39;99892.13;5038157;28;45627;-71
2022/12/29 06:33:27;;;;;;;;;1.50;1.50;;;;;10.36;80.26;99894.94;5038175;28;46986;-70
2022/12/29 06:35:52;;;;;;;;;1.00;1.00;;;;;10.39;80.16;99901.84;5037400;28;45465;-70
2022/12/29 06:38:17;;;;;;;;;0.50;0.50;;;;;10.32;80.03;99889.94;5037817;28;45313;-69
2022/12/29 06:40:44;;;;;;;;;0.00;0.00;;;;;10.37;79.85;99908.97;5037895;28;45588;-71
2022/12/29 06:43:10;;;;;;;;;2.00;2.00;;;;;10.35;80.00;99918.69;5037376;28;46882;-70
2022/12/29 06:45:38;;;;;;;;;0.25;0.25;;;;;10.32;80.48;99908.34;5037218;28;45301;-71
2022/12/29 06:48:03;;;;;;;;;1.00;1.00;;;;;10.31;80.14;99919.78;5020227;28;45439;-69
2022/12/29 06:50:28;;;;;;;;;0.25;0.25;;;;;10.27;80.76;99936.63;5037750;28;45622;-67
2022/12/29 06:52:54;;;;;;;;;0.75;0.75;;;;;10.28;80.21;99930.44;5037334;28;45768;-67
2022/12/29 06:55:21;;;;;;;;;0.75;0.75;;;;;10.28;80.66;99936.53;5036768;28;52363;-72
2022/12/29 06:57:46;;;;;;;;;1.00;0.50;;;;;10.28;80.24;99935.69;5019079;28;45370;-69
2022/12/29 07:00:12;;;;;;;;;0.00;0.00;;;;;10.30;80.25;99939.09;5037370;28;45547;-70
2022/12/29 07:02:37;;;;;;;;;0.00;0.00;;;;;10.29;80.24;99948.75;5037035;28;46222;-67
2022/12/29 07:05:03;;;;;;;;;0.00;0.00;;;;;10.28;80.05;99944.44;5038418;28;45325;-68
2022/12/29 07:07:28;;;;;;;;;1.00;1.00;;;;;10.30;80.71;99958.34;5037148;28;45450;-70
2022/12/29 07:09:53;;;;;;;;;1.00;1.00;;;;;10.25;80.76;99949.84;5037123;28;45272;-72
2022/12/29 07:12:18;;;;;;;;;1.50;1.50;;;;;10.32;80.68;99948.59;5018702;28;64054;-70
2022/12/29 07:14:44;;;;;;;;;1.00;1.00;;;;;10.27;80.20;99947.97;5037041;28;45391;-71
2022/12/29 07:17:09;;;;;;;;;1.25;1.25;;;;;10.32;80.14;99953.88;5037332;28;45318;-69
2022/12/29 07:19:35;;;;;;;;;1.50;1.00;;;;;10.31;79.82;99946.91;5036824;28;45301;-69
2022/12/29 07:22:01;;;;;;;;;1.75;1.75;;;;;10.29;80.06;99955.81;5036621;28;46175;-66
2022/12/29 07:24:26;;;;;;;;;1.00;1.00;;;;;10.28;80.02;99957.56;5018222;28;45507;-69
2022/12/29 07:26:52;;;;;;;;;1.00;1.00;;;;;10.27;79.71;99957.66;5036160;28;45493;-69
2022/12/29 07:29:18;;;;;;;;;1.00;1.00;;;;;10.25;80.07;99957.72;5035277;28;45497;-68
2022/12/29 07:31:43;;;;;;;;;0.75;0.75;;;;;10.25;80.08;99956.88;5035373;28;46279;-65
2022/12/29 07:34:09;;;;;;;;;1.00;1.00;;;;;10.19;80.34;99956.25;5042746;28;45515;-65
2022/12/29 07:36:34;;;;;;;;;2.25;2.25;;;;;10.22;80.00;99963.13;5034497;28;45506;-64
2022/12/29 07:39:00;;;;;;;;;1.00;1.00;;;;;10.16;80.45;99955.53;5017349;28;49436;-66
2022/12/29 07:41:25;;;;;;;;;0.75;0.75;;;;;10.20;80.46;99972.88;5033023;28;46136;-65
2022/12/29 07:43:51;;;;;;;;;7.75;7.75;;;;;10.19;80.48;99963.28;5035786;28;45426;-67
2022/12/29 07:46:16;;;;;;;;;0.50;0.50;;;;;10.17;80.33;99981.75;5023741;28;45723;-65
2022/12/29 07:48:41;;;;;;;;;0.50;0.50;;;;;10.20;80.15;99986.00;5016322;28;45559;-69
2022/12/29 07:51:06;;;;;;;;;2.00;2.00;;;;;10.19;80.57;99998.31;5016660;28;46194;-69
2022/12/29 07:53:32;;;;;;;;;2.00;2.00;;;;;10.19;79.84;99984.31;5033258;28;45468;-63
2022/12/29 07:55:57;;;;;;;;;0.00;0.00;;;;;10.18;79.93;99982.59;5037500;28;45794;-67
2022/12/29 07:58:23;;;;;;;;;1.00;1.00;;;;;10.18;79.57;99991.34;5042606;28;45561;-66
2022/12/29 08:00:53;;;;;;;;;2.25;2.25;;;;;10.16;80.12;99990.56;5037456;28;45303;-64
2022/12/29 08:03:18;;;;;;;;;1.00;1.00;;;;;10.16;79.97;100001.09;5022420;28;45428;-65
2022/12/29 08:05:44;;;;;;;;;1.25;1.25;;;;;10.15;79.64;100003.78;5013991;28;59119;-66
2022/12/29 08:08:09;;;;;;;;;1.25;1.25;;;;;10.16;79.46;100011.59;5022974;28;47425;-64
2022/12/29 08:10:34;;;;;;;;;9.50;9.25;;;;;10.14;79.24;100007.31;5029969;28;60590;-64
2022/12/29 08:12:59;;;;;;;;;4.00;3.00;;;;;10.16;79.63;100014.22;5013275;28;55440;-67
2022/12/29 08:15:25;;;;;;;;;3.00;3.00;;;;;10.11;79.56;100013.59;5013605;28;45943;-67
2022/12/29 08:17:50;;;;;;;;;2.00;2.00;;;;;10.16;79.04;100022.13;5019058;28;47806;-63
2022/12/29 08:20:15;;;;;;;;;4.00;4.00;;;;;10.15;78.97;100027.44;5037495;28;53927;-63
2022/12/29 08:22:41;;;;;;;;;0.00;0.00;;;;;10.15;78.64;100030.06;5035633;28;45432;-63
2022/12/29 08:25:06;;;;;;;;;2.50;2.50;;;;;10.15;78.93;100032.69;5035716;28;45343;-64
2022/12/29 08:27:32;;;;;;;;;3.00;3.00;;;;;10.15;78.54;100030.91;5036104;28;45274;-64
2022/12/29 08:29:57;;;;;;;;;5.25;4.50;;;;;10.16;78.37;100037.88;5033904;28;62186;-63
2022/12/29 08:32:22;;;;;;;;;2.00;2.00;;;;;10.17;78.55;100044.84;5033564;28;45392;-64
2022/12/29 08:34:48;;;;;;;;;3.00;3.00;;;;;10.14;78.08;100038.88;5035250;28;45353;-62
2022/12/29 08:37:13;;;;;;;;;1.50;1.50;;;;;10.18;77.81;100048.31;5035096;28;45356;-63
2022/12/29 08:39:38;;;;;;;;;3.00;3.00;;;;;10.18;77.79;100050.94;5033137;28;53315;-62
2022/12/29 08:42:04;;;;;;;;;2.50;2.50;;;;;10.20;77.96;100049.09;5035802;28;45266;-63
2022/12/29 08:44:29;;;;;;;;;3.25;2.75;;;;;10.22;77.79;100052.50;5036120;28;45730;-63
2022/12/29 08:46:55;;;;;;;;;2.75;2.50;;;;;10.23;77.79;100060.31;5035680;28;45329;-63
2022/12/29 08:49:20;;;;;;;;;1.75;1.75;;;;;10.24;77.47;100076.94;5034284;28;45344;-64
2022/12/29 08:51:45;;;;;;;;;2.50;2.50;;;;;10.25;77.38;100060.22;5034381;28;45382;-61
2022/12/29 08:54:11;;;;;;;;;1.00;1.00;;;;;10.26;77.43;100072.44;5035536;28;45381;-63
2022/12/29 08:56:36;;;;;;;;;2.00;2.00;;;;;10.08;77.27;100042.66;5035321;28;45169;-64
2022/12/29 08:59:01;;;;;;;;;1.00;1.00;;;;;10.27;76.80;100068.91;5035516;28;45425;-63
2022/12/29 09:01:27;;;;;;;;;3.25;3.25;;;;;10.09;77.07;100039.94;5034343;28;59181;-63
2022/12/29 09:03:54;;;;;;;;;1.25;1.25;;;;;10.32;76.96;100085.31;5035102;28;45360;-63
2022/12/29 09:06:19;;;;;;;;;4.50;4.50;;;;;10.32;76.65;100073.94;5035376;28;45293;-66
2022/12/29 09:08:44;;;;;;;;;2.00;2.00;;;;;10.34;76.63;100082.63;5034771;28;46041;-64
2022/12/29 09:11:16;;;;;;;;;2.00;2.00;;;;;10.34;75.85;100061.59;5034863;28;45412;-64
2022/12/29 09:13:42;;;;;;;;;1.75;1.75;;;;;10.36;76.67;100084.22;5035454;28;45329;-63
2022/12/29 09:16:08;;;;;;;;;2.00;2.00;;;;;10.37;75.96;100083.31;5035087;28;45370;-64
2022/12/29 09:18:33;;;;;;;;;2.00;2.00;;;;;10.42;75.90;100098.91;5016949;28;46551;-65
2022/12/29 09:21:00;;;;;;;;;3.00;2.00;;;;;10.37;76.00;100083.31;5034623;28;45325;-64
2022/12/29 09:23:26;;;;;;;;;2.00;2.00;;;;;10.42;75.93;100088.41;5039950;28;45344;-66
2022/12/29 09:25:52;;;;;;;;;3.00;3.00;;;;;10.50;76.09;100109.06;5020644;28;45458;-64
2022/12/29 09:28:18;;;;;;;;;3.00;2.75;;;;;10.49;76.01;100107.34;5037825;28;45409;-65
2022/12/29 09:30:43;;;;;;;;;10.50;10.25;;;;;10.53;76.23;100116.78;5038037;28;45257;-63
2022/12/29 09:33:08;;;;;;;;;3.25;3.25;;;;;10.49;76.03;100102.09;5038118;28;45645;-63
2022/12/29 09:35:34;;;;;;;;;3.50;3.50;;;;;10.56;75.50;100108.75;5038854;28;45279;-63
2022/12/29 09:37:59;;;;;;;;;3.00;3.00;;;;;10.57;75.79;100118.34;5038188;28;45359;-64
2022/12/29 09:40:27;;;;;;;;;2.75;2.75;;;;;10.59;75.75;100123.56;5038349;28;45325;-65
2022/12/29 09:43:13;;;;;;;;;2.25;1.75;;;;;10.61;75.85;100133.09;5038583;28;45486;-66
2022/12/29 09:45:45;;;;;;;;;2.00;2.00;;;;;10.62;75.87;100126.03;5038880;28;45344;-68
2022/12/29 09:48:34;;;;;;;;;4.00;4.00;;;;;10.63;75.79;100130.38;5039366;28;45418;-67
2022/12/29 09:51:05;;;;;;;;;3.25;3.25;;;;;10.63;75.29;100130.38;5022868;28;46222;-66
2022/12/29 09:53:44;;;;;;;;;2.50;2.25;;;;;10.64;75.30;100132.94;5038768;28;45406;-65
2022/12/29 09:56:15;;;;;;;;;3.75;3.75;;;;;10.66;75.30;100138.97;5038080;28;45508;-65
2022/12/29 09:58:49;;;;;;;;;1.75;1.75;;;;;10.66;75.34;100132.84;5038344;28;46232;-65
2022/12/29 10:01:37;;;;;;;;;3.25;3.25;;;;;10.69;74.97;100143.22;5039836;28;45226;-66
2022/12/29 10:04:05;;;;;;;;;2.75;2.75;;;;;10.70;75.10;100146.72;5020384;28;45421;-66
2022/12/29 10:06:33;;;;;;;;;2.50;2.50;;;;;10.71;74.96;100165.06;5020378;28;45630;-66
2022/12/29 10:09:23;;;;;;;;;1.00;1.00;;;;;10.73;74.63;100163.19;5039074;28;46134;-65
2022/12/29 10:12:13;;;;;;;;;3.00;3.00;;;;;10.80;74.48;100150.63;5037648;28;45431;-64
2022/12/29 10:15:09;;;;;;;;;8.00;8.00;;;;;10.88;74.40;100158.13;5037806;28;45327;-65
2022/12/29 10:17:55;;;;;;;;;5.25;4.75;;;;;10.92;74.46;100157.06;5038253;28;45543;-66
2022/12/29 10:20:32;;;;;;;;;2.75;2.75;;;;;10.97;73.83;100157.69;5037109;28;46101;-65
2022/12/29 10:23:00;;;;;;;;;2.00;2.00;;;;;11.00;74.36;100162.78;5037118;28;45384;-65
2022/12/29 10:25:29;;;;;;;;;4.00;4.00;;;;;10.94;73.84;100140.28;5037328;28;45393;-66
2022/12/29 10:28:00;;;;;;;;;3.50;3.50;;;;;11.01;73.17;100150.50;5037878;28;45340;-64
2022/12/29 10:30:25;;;;;;;;;2.50;2.50;;;;;11.00;73.40;100154.06;5037948;28;45998;-64
2022/12/29 10:33:19;;;;;;;;;3.00;3.00;;;;;10.97;73.29;100160.31;5037401;28;45350;-65
2022/12/29 10:35:47;;;;;;;;;4.00;4.00;;;;;10.96;72.87;100155.97;5036269;28;45320;-64
2022/12/29 10:38:15;;;;;;;;;6.25;6.25;;;;;10.94;73.11;100155.19;5038002;28;45543;-65
2022/12/29 10:40:46;;;;;;;;;2.25;2.25;;;;;10.94;73.34;100139.41;5037630;28;46108;-65
2022/12/29 10:43:39;;;;;;;;;5.00;4.50;;;;;10.89;73.51;100133.53;5019191;28;45395;-63
2022/12/29 10:46:11;;;;;;;;;3.75;3.75;;;;;10.93;73.28;100153.50;5020251;28;45463;-66
2022/12/29 10:48:37;;;;;;;;;4.00;4.00;;;;;10.92;73.13;100151.78;5019456;28;45269;-66
2022/12/29 10:51:05;;;;;;;;;4.25;4.25;;;;;10.90;72.54;100146.63;5037087;28;45526;-65
2022/12/29 10:53:39;;;;;;;;;3.00;2.00;;;;;10.95;72.36;100149.88;5037012;28;45277;-65
2022/12/29 10:56:31;;;;;;;;;4.25;4.25;;;;;10.96;72.01;100148.09;5038628;28;45338;-64
2022/12/29 10:59:03;;;;;;;;;3.50;3.00;;;;;10.99;72.02;100147.09;5036281;28;45439;-67
2022/12/29 11:01:38;;;;;;;;;4.00;3.25;;;;;11.00;72.12;100141.75;5036585;28;45289;-64
2022/12/29 11:04:22;;;;;;;;;5.25;3.75;;;;;11.01;71.57;100145.25;5036934;28;45414;-64
2022/12/29 11:06:48;;;;;;;;;2.75;2.75;;;;;10.97;71.35;100139.25;5036676;28;45277;-65
2022/12/29 11:09:31;;;;;;;;;4.25;3.00;;;;;11.01;71.31;100159.22;5037105;28;45606;-65
2022/12/29 11:11:56;;;;;;;;;2.00;1.00;;;;;11.01;70.99;100171.56;5037171;28;46372;-65
2022/12/29 11:14:28;;;;;;;;;4.75;4.75;;;;;10.92;70.98;100134.25;5036822;28;45417;-67
2022/12/29 11:17:01;;;;;;;;;7.00;6.00;;;;;11.00;70.84;100148.81;5037059;28;45362;-65
2022/12/29 11:19:32;;;;;;;;;1.00;1.00;;;;;11.03;70.85;100156.53;5037026;28;45271;-66
2022/12/29 11:22:22;;;;;;;;;5.50;5.00;;;;;11.03;70.27;100144.22;5018838;28;46130;-66
2022/12/29 11:24:49;;;;;;;;;5.75;5.00;;;;;11.05;69.67;100149.44;5036659;28;45387;-63
2022/12/29 11:27:19;;;;;;;;;4.50;3.00;;;;;11.01;69.79;100150.50;5018939;28;45376;-64
2022/12/29 11:29:45;;;;;;;;;2.75;2.75;;;;;10.93;69.51;100130.69;5036719;28;45526;-67
2022/12/29 11:32:11;;;;;;;;;4.00;4.00;;;;;11.09;69.69;100153.59;5036857;28;45274;-65
2022/12/29 11:34:37;;;;;;;;;3.00;3.00;;;;;11.13;69.91;100146.41;5036484;28;45425;-65
2022/12/29 11:37:16;;;;;;;;;5.75;4.00;;;;;11.21;69.69;100150.38;5037803;28;45352;-65
2022/12/29 11:39:59;;;;;;;;;2.00;2.00;;;;;11.29;69.69;100151.75;5022468;28;45309;-63
2022/12/29 11:42:36;;;;;;;;;7.00;7.00;;;;;11.36;69.79;100151.38;5037859;28;45357;-64
2022/12/29 11:45:22;;;;;;;;;4.75;4.75;;;;;11.42;69.51;100147.56;5034871;28;45389;-67
2022/12/29 11:48:00;;;;;;;;;4.00;2.75;;;;;11.48;68.75;100155.16;5017394;28;45417;-65
2022/12/29 11:50:29;;;;;;;;;5.00;4.00;;;;;11.50;67.94;100148.03;5035703;28;45229;-66
2022/12/29 11:53:05;;;;;;;;;3.75;3.75;;;;;11.55;68.46;100159.19;5017510;28;45431;-65
2022/12/29 11:55:32;;;;;;;;;4.00;4.00;;;;;11.54;67.53;100143.47;5035624;28;45462;-65
2022/12/29 11:58:01;;;;;;;;;6.75;6.75;;;;;11.58;67.61;100147.66;5035587;28;45500;-65
2022/12/29 12:00:28;;;;;;;;;7.50;7.50;;;;;11.56;67.69;100133.72;5017588;28;45270;-65
2022/12/29 12:02:56;;;;;;;;;4.75;4.75;;;;;11.57;67.17;100137.19;5035242;28;46141;-65
2022/12/29 12:05:36;;;;;;;;;6.00;6.00;;;;;11.48;66.54;100113.03;5035211;28;45327;-64
2022/12/29 12:08:09;;;;;;;;;6.75;6.50;;;;;11.53;66.71;100115.44;5035735;28;45371;-64
2022/12/29 12:10:44;;;;;;;;;3.75;3.75;;;;;11.53;67.04;100111.00;5035099;28;45665;-65
2022/12/29 12:13:33;;;;;;;;;6.00;5.25;;;;;11.53;66.69;100116.28;5033895;28;46191;-63